Time;durP1;ratioP1;P1;durP2;ratioP2;P2;SDS_P1;SDS_P2;PMS_P1;PMS_P2;Temp;Humidity;BMP_temperature;BMP_pressure;BME280_temperature;BME280_humidity;BME280_pressure;Samples;Min_cycle;Max_cycle;Signal;HPM_P1;HPM_P2
2022/10/15 00:00:34;;;;;;;7.10;6.40;;;16.00;99.90;;;;;;5094207;28;20464;-71
2022/10/15 00:03:01;;;;;;;7.93;7.20;;;16.00;99.90;;;;;;5093780;28;20468;-71
2022/10/15 00:05:27;;;;;;;6.37;5.77;;;16.00;99.90;;;;;;5094451;28;20447;-71
2022/10/15 00:07:54;;;;;;;8.93;7.60;;;16.00;99.90;;;;;;5094377;28;20447;-71
2022/10/15 00:10:22;;;;;;;9.43;8.03;;;16.00;99.90;;;;;;5094012;28;20487;-71
2022/10/15 00:12:49;;;;;;;8.87;8.13;;;16.00;99.90;;;;;;5093652;28;20491;-71
2022/10/15 00:15:16;;;;;;;9.30;8.33;;;16.00;99.90;;;;;;5095756;28;20471;-71
2022/10/15 00:17:43;;;;;;;9.43;8.60;;;16.10;99.90;;;;;;5093351;28;20447;-75
2022/10/15 00:20:11;;;;;;;8.27;7.40;;;16.00;99.90;;;;;;5109587;28;20536;-71
2022/10/15 00:22:38;;;;;;;8.30;7.27;;;16.00;99.90;;;;;;5113774;28;20467;-71
2022/10/15 00:25:06;;;;;;;12.10;9.60;;;16.00;99.90;;;;;;5092600;28;20869;-71
2022/10/15 00:27:34;;;;;;;12.40;8.80;;;16.00;99.90;;;;;;5093892;28;20444;-71
2022/10/15 00:30:02;;;;;;;9.80;7.13;;;16.00;99.90;;;;;;5092651;28;21011;-71
2022/10/15 00:32:29;;;;;;;8.63;7.80;;;16.00;99.90;;;;;;5093521;28;20468;-71
2022/10/15 00:34:55;;;;;;;11.87;7.47;;;16.00;99.90;;;;;;5097683;28;20459;-71
2022/10/15 00:37:22;;;;;;;9.73;8.83;;;15.90;99.90;;;;;;5099291;28;20459;-71
2022/10/15 00:39:49;;;;;;;8.33;7.53;;;15.90;99.90;;;;;;5107684;28;20476;-71
2022/10/15 00:42:17;;;;;;;12.43;7.73;;;15.90;99.90;;;;;;5097596;28;20421;-71
2022/10/15 00:44:51;;;;;;;8.70;6.90;;;15.80;99.90;;;;;;5101788;28;20460;-71
2022/10/15 00:47:22;;;;;;;8.13;7.37;;;15.80;99.90;;;;;;5108012;28;20463;-71
2022/10/15 00:49:58;;;;;;;8.97;7.10;;;15.80;99.90;;;;;;5102705;28;20493;-71
2022/10/15 00:52:30;;;;;;;8.03;7.23;;;15.80;99.90;;;;;;5117229;28;20473;-71
2022/10/15 00:55:01;;;;;;;7.17;6.47;;;15.70;99.90;;;;;;5114131;28;20507;-71
2022/10/15 00:57:30;;;;;;;7.73;6.60;;;15.70;99.90;;;;;;5116140;28;20451;-71
2022/10/15 01:00:02;;;;;;;7.53;6.20;;;15.70;99.90;;;;;;5115974;28;20491;-71
2022/10/15 01:02:29;;;;;;;6.67;6.07;;;15.60;99.90;;;;;;5117644;28;20424;-70
2022/10/15 01:04:56;;;;;;;6.33;5.73;;;15.60;99.80;;;;;;5110703;28;20464;-71
2022/10/15 01:07:23;;;;;;;9.00;5.67;;;15.50;99.70;;;;;;5097296;28;20459;-71
2022/10/15 01:09:50;;;;;;;7.27;6.57;;;15.50;99.60;;;;;;5100734;28;20483;-73
2022/10/15 01:12:24;;;;;;;11.20;7.60;;;15.50;99.50;;;;;;5100092;28;20479;-71
2022/10/15 01:15:02;;;;;;;8.13;7.00;;;15.40;99.50;;;;;;5099415;28;20466;-71
2022/10/15 01:17:38;;;;;;;8.90;6.83;;;15.40;99.50;;;;;;5117554;28;20412;-71
2022/10/15 01:20:47;;;;;;;9.63;7.50;;;15.40;99.60;;;;;;5113372;28;20489;-71
2022/10/15 01:23:56;;;;;;;7.23;6.53;;;15.30;99.90;;;;;;5096595;28;20450;-71
2022/10/15 01:26:46;;;;;;;7.80;7.00;;;15.30;99.70;;;;;;5112817;28;20459;-71
2022/10/15 01:29:27;;;;;;;9.33;7.63;;;15.30;99.80;;;;;;5116949;28;20459;-71
2022/10/15 01:32:03;;;;;;;8.00;7.30;;;15.20;99.90;;;;;;5097460;28;20566;-71
2022/10/15 01:34:37;;;;;;;13.53;8.77;;;15.20;99.90;;;;;;5096525;28;20421;-73
2022/10/15 01:37:09;;;;;;;9.47;8.47;;;15.20;99.90;;;;;;5116799;28;20434;-71
2022/10/15 01:39:40;;;;;;;11.57;9.10;;;15.20;99.90;;;;;;5106535;28;20575;-71
2022/10/15 01:42:15;;;;;;;14.53;9.13;;;15.20;99.90;;;;;;5096947;28;20463;-71
2022/10/15 01:44:47;;;;;;;9.10;8.03;;;15.20;99.90;;;;;;5103783;28;20470;-71
2022/10/15 01:47:22;;;;;;;9.50;7.80;;;15.20;99.90;;;;;;5096684;28;20461;-71
2022/10/15 01:49:52;;;;;;;8.30;6.60;;;15.20;99.90;;;;;;5096307;28;20490;-71
2022/10/15 01:52:23;;;;;;;8.60;7.60;;;15.20;99.90;;;;;;5095831;28;20487;-71
2022/10/15 01:54:51;;;;;;;10.07;7.80;;;15.30;99.90;;;;;;5098538;28;21120;-71
2022/10/15 01:57:20;;;;;;;11.57;8.93;;;15.30;99.90;;;;;;5112224;28;20454;-71
2022/10/15 01:59:47;;;;;;;13.70;6.70;;;15.30;99.90;;;;;;5107745;28;20506;-71
2022/10/15 02:02:15;;;;;;;8.77;6.83;;;15.30;99.90;;;;;;5097327;28;20447;-71
2022/10/15 02:04:42;;;;;;;9.10;7.23;;;15.30;99.90;;;;;;5096511;28;20464;-71
2022/10/15 02:07:11;;;;;;;12.33;6.40;;;15.30;99.90;;;;;;5097173;28;20467;-71
2022/10/15 02:09:46;;;;;;;10.10;5.77;;;15.30;99.90;;;;;;5096975;28;20488;-71
2022/10/15 02:12:30;;;;;;;11.30;5.83;;;15.40;99.90;;;;;;5101413;28;20482;-71
2022/10/15 02:15:03;;;;;;;7.47;6.30;;;15.40;99.90;;;;;;5116708;28;20466;-71
2022/10/15 02:17:38;;;;;;;7.90;6.50;;;15.40;99.90;;;;;;5115973;28;20455;-71
2022/10/15 02:20:11;;;;;;;7.77;6.27;;;15.40;99.90;;;;;;5116705;28;20497;-71
2022/10/15 02:22:46;;;;;;;7.70;5.53;;;15.40;99.90;;;;;;5111844;28;20499;-71
2022/10/15 02:25:18;;;;;;;8.47;6.23;;;15.50;99.90;;;;;;5097232;28;20444;-71
2022/10/15 02:27:47;;;;;;;11.60;7.37;;;15.40;99.90;;;;;;5097313;28;20463;-71
2022/10/15 02:30:15;;;;;;;8.53;6.30;;;15.50;99.90;;;;;;5106988;28;20463;-71
2022/10/15 02:32:47;;;;;;;9.67;6.80;;;15.50;99.90;;;;;;5102874;28;20472;-71
2022/10/15 02:35:14;;;;;;;7.10;6.40;;;15.50;99.90;;;;;;5111017;28;20461;-71
2022/10/15 02:37:49;;;;;;;10.10;5.70;;;15.50;99.90;;;;;;5097172;28;20444;-71
2022/10/15 02:40:16;;;;;;;6.13;5.53;;;15.50;99.90;;;;;;5095712;28;20499;-71
2022/10/15 02:42:43;;;;;;;9.50;7.37;;;15.50;99.90;;;;;;5097883;28;20458;-71
2022/10/15 02:45:10;;;;;;;10.43;7.43;;;15.50;99.90;;;;;;5099968;28;20528;-71
2022/10/15 02:47:37;;;;;;;10.47;6.43;;;15.50;99.90;;;;;;5115763;28;20448;-71
2022/10/15 02:50:05;;;;;;;10.23;7.20;;;15.50;99.90;;;;;;5100565;28;20488;-71
2022/10/15 02:52:32;;;;;;;8.87;7.50;;;15.50;99.90;;;;;;5098660;28;20476;-71
2022/10/15 02:54:59;;;;;;;10.10;7.80;;;15.50;99.90;;;;;;5115390;28;20397;-71
2022/10/15 02:57:26;;;;;;;9.10;7.10;;;15.60;99.90;;;;;;5113299;28;20490;-71
2022/10/15 02:59:53;;;;;;;9.97;8.23;;;15.50;99.90;;;;;;5113551;28;20483;-71
2022/10/15 03:02:19;;;;;;;9.10;8.20;;;15.60;99.90;;;;;;5102105;28;20456;-72
2022/10/15 03:04:46;;;;;;;8.77;7.83;;;15.60;99.90;;;;;;5094424;28;20459;-71
2022/10/15 03:07:14;;;;;;;7.53;6.83;;;15.60;99.90;;;;;;5094593;28;20477;-71
2022/10/15 03:09:41;;;;;;;8.83;7.70;;;15.60;99.90;;;;;;5093786;28;20487;-71
2022/10/15 03:12:08;;;;;;;8.90;8.00;;;15.50;99.90;;;;;;5094204;28;20471;-71
2022/10/15 03:14:35;;;;;;;8.93;7.33;;;15.50;99.90;;;;;;5096039;28;20471;-71
2022/10/15 03:17:01;;;;;;;10.90;7.70;;;15.50;99.90;;;;;;5094981;28;20471;-71
2022/10/15 03:19:28;;;;;;;9.63;8.63;;;15.50;99.90;;;;;;5101945;28;20482;-71
2022/10/15 03:21:55;;;;;;;8.90;7.83;;;15.60;99.90;;;;;;5110091;28;20459;-71
2022/10/15 03:24:23;;;;;;;8.57;7.60;;;15.60;99.90;;;;;;5094386;28;20474;-71
2022/10/15 03:26:49;;;;;;;9.30;8.27;;;15.60;99.90;;;;;;5094602;28;20467;-71
2022/10/15 03:29:16;;;;;;;7.07;6.47;;;15.60;99.90;;;;;;5098917;28;20648;-71
2022/10/15 03:31:43;;;;;;;13.27;8.33;;;15.60;99.90;;;;;;5112240;28;20455;-71
2022/10/15 03:34:10;;;;;;;8.57;7.77;;;15.60;99.90;;;;;;5093479;28;20536;-71
2022/10/15 03:36:36;;;;;;;13.73;9.57;;;15.60;99.90;;;;;;5091237;28;20468;-70
2022/10/15 03:39:03;;;;;;;10.60;8.60;;;15.60;99.90;;;;;;5087907;28;20452;-71
2022/10/15 03:41:31;;;;;;;9.60;8.17;;;15.50;99.90;;;;;;5093508;28;20475;-71
2022/10/15 03:44:01;;;;;;;12.37;9.87;;;15.50;99.90;;;;;;5093503;28;20452;-71
2022/10/15 03:46:28;;;;;;;8.50;7.60;;;15.50;99.90;;;;;;5095131;28;20465;-71
2022/10/15 03:48:55;;;;;;;8.80;7.90;;;15.50;99.90;;;;;;5095091;28;20447;-71
2022/10/15 03:51:23;;;;;;;8.10;7.27;;;15.50;99.90;;;;;;5093941;28;20441;-71
2022/10/15 03:53:50;;;;;;;9.10;8.20;;;15.50;99.90;;;;;;5093242;28;20493;-71
2022/10/15 03:56:17;;;;;;;10.70;9.60;;;15.50;99.90;;;;;;5093278;28;20479;-74
2022/10/15 03:58:45;;;;;;;12.27;9.23;;;15.50;99.90;;;;;;5093884;28;20448;-71
2022/10/15 04:01:14;;;;;;;9.53;8.63;;;15.50;99.90;;;;;;5093323;28;20521;-71
2022/10/15 04:03:41;;;;;;;8.37;7.43;;;15.40;99.90;;;;;;5095041;28;20428;-71
2022/10/15 04:06:08;;;;;;;9.73;8.70;;;15.40;99.90;;;;;;5098636;28;20463;-72
2022/10/15 04:08:35;;;;;;;10.93;9.77;;;15.40;99.90;;;;;;5113142;28;20459;-71
2022/10/15 04:11:02;;;;;;;11.57;9.53;;;15.40;99.90;;;;;;5112477;28;20498;-72
2022/10/15 04:13:29;;;;;;;16.80;10.87;;;15.40;99.90;;;;;;5109418;28;20476;-72
2022/10/15 04:15:57;;;;;;;13.07;9.57;;;15.40;99.90;;;;;;5097591;28;20471;-71
2022/10/15 04:18:23;;;;;;;10.67;8.93;;;15.40;99.90;;;;;;5097452;28;20467;-71
2022/10/15 04:20:50;;;;;;;12.90;9.23;;;15.50;99.90;;;;;;5110471;28;20463;-71
2022/10/15 04:23:17;;;;;;;11.27;9.23;;;15.40;99.90;;;;;;5117685;28;20450;-71
2022/10/15 04:25:45;;;;;;;12.53;8.70;;;15.40;99.90;;;;;;5107384;28;20463;-71
2022/10/15 04:28:11;;;;;;;12.50;11.30;;;15.40;99.90;;;;;;5116691;28;20530;-71
2022/10/15 04:30:38;;;;;;;10.53;9.40;;;15.40;99.90;;;;;;5103187;28;20471;-71
2022/10/15 04:33:06;;;;;;;17.03;10.77;;;15.40;99.90;;;;;;5096896;28;20485;-71
2022/10/15 04:35:33;;;;;;;16.80;10.73;;;15.50;99.90;;;;;;5097704;28;20472;-71
2022/10/15 04:38:01;;;;;;;20.40;10.07;;;15.40;99.90;;;;;;5097520;28;20511;-71
2022/10/15 04:40:27;;;;;;;13.20;9.30;;;15.50;99.90;;;;;;5104060;28;20526;-71
2022/10/15 04:42:54;;;;;;;11.30;9.10;;;15.50;99.90;;;;;;5102006;28;20868;-72
2022/10/15 04:45:21;;;;;;;13.13;9.40;;;15.50;99.90;;;;;;5096935;28;20475;-71
2022/10/15 04:47:48;;;;;;;15.17;9.50;;;15.50;99.90;;;;;;5097223;28;20451;-71
2022/10/15 04:50:16;;;;;;;12.43;9.83;;;15.50;99.90;;;;;;5096374;28;20488;-71
2022/10/15 04:52:43;;;;;;;11.90;10.47;;;15.50;99.90;;;;;;5095915;28;20491;-71
2022/10/15 04:55:09;;;;;;;14.70;10.13;;;15.50;99.90;;;;;;5096258;28;20524;-71
2022/10/15 04:57:36;;;;;;;12.13;9.77;;;15.50;99.90;;;;;;5096356;28;20477;-71
2022/10/15 05:00:04;;;;;;;16.60;9.83;;;15.50;99.90;;;;;;5097072;28;20550;-71
2022/10/15 05:02:31;;;;;;;12.70;10.67;;;15.50;99.90;;;;;;5099295;28;20455;-71
2022/10/15 05:04:58;;;;;;;14.63;10.10;;;15.40;99.90;;;;;;5095810;28;20458;-71
2022/10/15 05:07:26;;;;;;;13.53;11.47;;;15.40;99.90;;;;;;5096321;28;20429;-71
2022/10/15 05:09:53;;;;;;;12.60;11.40;;;15.40;99.90;;;;;;5096896;28;20488;-71
2022/10/15 05:12:20;;;;;;;15.13;13.53;;;15.30;99.90;;;;;;5095578;28;20481;-72
2022/10/15 05:14:46;;;;;;;14.60;13.00;;;15.30;99.90;;;;;;5096684;28;20492;-71
2022/10/15 05:17:13;;;;;;;16.73;13.53;;;15.30;99.90;;;;;;5096290;28;20475;-71
2022/10/15 05:19:40;;;;;;;16.23;14.30;;;15.30;99.90;;;;;;5102008;28;20483;-71
2022/10/15 05:22:07;;;;;;;18.90;15.30;;;15.30;99.90;;;;;;5112577;28;20490;-71
2022/10/15 05:24:35;;;;;;;29.03;16.87;;;15.30;99.90;;;;;;5115489;28;20474;-71
2022/10/15 05:27:01;;;;;;;19.50;17.40;;;15.30;99.90;;;;;;5108618;28;20478;-71
2022/10/15 05:29:28;;;;;;;21.90;18.50;;;15.30;99.90;;;;;;5099916;28;20497;-71
2022/10/15 05:31:55;;;;;;;25.00;20.27;;;15.30;99.90;;;;;;5104023;28;20532;-71
2022/10/15 05:34:22;;;;;;;21.90;19.57;;;15.30;99.90;;;;;;5098558;28;20463;-71
2022/10/15 05:36:49;;;;;;;26.93;21.50;;;15.30;99.90;;;;;;5116569;28;20548;-71
2022/10/15 05:39:15;;;;;;;26.20;23.43;;;15.30;99.90;;;;;;5114142;28;20463;-71
2022/10/15 05:41:43;;;;;;;31.27;26.00;;;15.30;99.90;;;;;;5114228;28;20475;-71
2022/10/15 05:44:10;;;;;;;32.40;26.60;;;15.20;99.90;;;;;;5114850;28;20444;-71
2022/10/15 05:46:37;;;;;;;34.33;27.80;;;15.30;99.90;;;;;;5102252;28;20461;-71
2022/10/15 05:49:04;;;;;;;30.63;26.53;;;15.20;99.90;;;;;;5095864;28;20428;-72
2022/10/15 05:51:30;;;;;;;27.27;23.40;;;15.20;99.90;;;;;;5092548;28;20539;-69
2022/10/15 05:53:58;;;;;;;34.67;28.20;;;15.20;99.90;;;;;;5115672;28;20494;-70
2022/10/15 05:56:26;;;;;;;37.00;26.33;;;15.20;99.90;;;;;;5115461;28;20467;-71
2022/10/15 05:58:55;;;;;;;30.37;26.30;;;15.10;99.90;;;;;;5115971;28;20439;-71
2022/10/15 06:01:22;;;;;;;32.97;27.17;;;15.20;99.90;;;;;;5094487;28;20460;-71
2022/10/15 06:03:49;;;;;;;29.70;25.17;;;15.10;99.90;;;;;;5112558;28;20459;-71
2022/10/15 06:06:18;;;;;;;34.03;26.37;;;15.10;99.90;;;;;;5115819;28;20448;-71
2022/10/15 06:08:44;;;;;;;33.87;26.33;;;15.10;99.90;;;;;;5114998;28;20506;-70
2022/10/15 06:11:11;;;;;;;30.37;26.07;;;15.00;99.90;;;;;;5097032;28;20508;-74
2022/10/15 06:13:41;;;;;;;36.77;28.67;;;15.00;99.90;;;;;;5096138;28;20482;-71
2022/10/15 06:16:10;;;;;;;33.83;26.40;;;15.10;99.90;;;;;;5095510;28;20499;-71
2022/10/15 06:18:38;;;;;;;29.83;25.27;;;15.00;99.90;;;;;;5097864;28;20460;-71
2022/10/15 06:21:07;;;;;;;33.60;27.10;;;15.00;99.90;;;;;;5101310;28;20510;-71
2022/10/15 06:23:34;;;;;;;32.77;25.33;;;15.00;99.90;;;;;;5108196;28;20459;-71
2022/10/15 06:26:03;;;;;;;31.17;23.53;;;15.10;99.90;;;;;;5114267;28;20463;-71
2022/10/15 06:28:29;;;;;;;29.53;22.53;;;15.10;99.90;;;;;;5114864;28;20440;-70
2022/10/15 06:30:58;;;;;;;24.07;20.83;;;15.10;99.90;;;;;;5105554;28;20552;-71
2022/10/15 06:33:29;;;;;;;28.33;22.80;;;15.20;99.90;;;;;;5112066;28;21005;-71
2022/10/15 06:36:01;;;;;;;24.70;20.30;;;15.20;99.90;;;;;;5099611;28;20478;-69
2022/10/15 06:38:27;;;;;;;26.43;21.57;;;15.20;99.90;;;;;;5110350;28;20471;-72
2022/10/15 06:40:54;;;;;;;27.63;22.50;;;15.20;99.90;;;;;;5109570;28;20499;-71
2022/10/15 06:43:21;;;;;;;26.00;22.30;;;15.30;99.90;;;;;;5112996;28;20530;-71
2022/10/15 06:45:48;;;;;;;23.80;20.57;;;15.30;99.90;;;;;;5109513;28;20452;-71
2022/10/15 06:48:15;;;;;;;25.70;22.40;;;15.30;99.90;;;;;;5099602;28;20471;-71
2022/10/15 06:50:43;;;;;;;27.83;23.20;;;15.40;99.90;;;;;;5106052;28;20487;-70
2022/10/15 06:53:10;;;;;;;28.50;22.37;;;15.40;99.90;;;;;;5100163;28;20516;-70
2022/10/15 06:55:38;;;;;;;23.83;20.80;;;15.50;99.90;;;;;;5099577;28;20837;-71
2022/10/15 06:58:05;;;;;;;24.67;21.90;;;15.50;99.90;;;;;;5109595;28;20459;-72
2022/10/15 07:00:34;;;;;;;28.87;22.83;;;15.50;99.90;;;;;;5101582;28;20539;-72
2022/10/15 07:03:04;;;;;;;26.23;21.80;;;15.50;99.90;;;;;;5102096;28;20461;-72
2022/10/15 07:05:31;;;;;;;21.50;19.17;;;15.60;99.90;;;;;;5113387;28;20440;-71
2022/10/15 07:07:59;;;;;;;22.93;20.37;;;15.60;99.90;;;;;;5095916;28;20974;-72
2022/10/15 07:10:27;;;;;;;22.60;19.47;;;15.60;99.90;;;;;;5102198;28;20487;-72
2022/10/15 07:12:54;;;;;;;22.93;19.10;;;15.70;99.90;;;;;;5105096;28;20459;-71
2022/10/15 07:15:21;;;;;;;21.10;18.30;;;15.70;99.90;;;;;;5110844;28;20475;-70
2022/10/15 07:17:48;;;;;;;20.43;17.77;;;15.80;99.90;;;;;;5108795;28;20468;-70
2022/10/15 07:20:15;;;;;;;19.70;16.13;;;15.80;99.90;;;;;;5109651;28;20475;-70
2022/10/15 07:22:42;;;;;;;17.73;14.73;;;15.90;99.90;;;;;;5095406;28;20472;-72
2022/10/15 07:25:10;;;;;;;18.93;16.87;;;16.00;99.90;;;;;;5087451;28;20465;-71
2022/10/15 07:27:37;;;;;;;15.50;13.93;;;16.00;99.90;;;;;;5094769;28;20470;-73
2022/10/15 07:30:07;;;;;;;14.17;12.53;;;16.10;99.90;;;;;;5099763;28;20488;-72
2022/10/15 07:32:34;;;;;;;15.13;13.63;;;16.10;99.90;;;;;;5097054;28;20457;-72
2022/10/15 07:35:01;;;;;;;15.70;14.07;;;16.20;99.90;;;;;;5090418;28;20476;-72
2022/10/15 07:37:28;;;;;;;14.77;13.27;;;16.20;99.90;;;;;;5089420;28;20433;-71
2022/10/15 07:39:54;;;;;;;15.43;13.60;;;16.30;99.90;;;;;;5088528;28;20472;-72
2022/10/15 07:42:22;;;;;;;14.60;11.43;;;16.30;99.90;;;;;;5086837;28;20445;-72
2022/10/15 07:44:49;;;;;;;12.07;10.73;;;16.30;99.90;;;;;;5090538;28;20438;-72
2022/10/15 07:47:16;;;;;;;10.53;9.57;;;16.30;99.90;;;;;;5090538;28;20449;-72
2022/10/15 07:49:43;;;;;;;10.53;9.53;;;16.40;99.90;;;;;;5084734;28;20489;-70
2022/10/15 07:52:09;;;;;;;9.63;8.83;;;16.40;99.90;;;;;;5077786;28;20823;-71
2022/10/15 07:54:36;;;;;;;8.53;7.73;;;16.40;99.90;;;;;;5075436;28;20485;-72
2022/10/15 07:57:05;;;;;;;9.63;7.33;;;16.50;99.90;;;;;;5078389;28;20849;-72
2022/10/15 07:59:33;;;;;;;8.33;7.50;;;16.50;99.90;;;;;;5080810;28;20497;-72
2022/10/15 08:02:00;;;;;;;7.50;6.80;;;16.60;99.90;;;;;;5085169;28;20433;-72
2022/10/15 08:04:27;;;;;;;7.77;7.07;;;16.60;99.90;;;;;;5085239;28;20452;-71
2022/10/15 08:06:54;;;;;;;9.57;7.87;;;16.60;99.80;;;;;;5090649;28;20816;-71
2022/10/15 08:09:21;;;;;;;7.70;6.90;;;16.70;99.80;;;;;;5091295;28;21043;-72
2022/10/15 08:11:47;;;;;;;6.90;6.17;;;16.70;99.50;;;;;;5091285;28;20457;-71
2022/10/15 08:14:14;;;;;;;6.57;5.97;;;16.80;99.40;;;;;;5090907;28;20476;-71
2022/10/15 08:16:42;;;;;;;5.70;5.30;;;16.80;99.30;;;;;;5091100;28;20447;-71
2022/10/15 08:19:09;;;;;;;6.47;4.40;;;16.90;99.10;;;;;;5090825;28;20477;-71
2022/10/15 08:21:35;;;;;;;6.23;5.63;;;16.90;98.80;;;;;;5090654;28;20429;-71
2022/10/15 08:24:02;;;;;;;4.60;4.10;;;17.00;98.80;;;;;;5090898;28;20445;-71
2022/10/15 08:26:29;;;;;;;4.20;3.70;;;17.10;98.70;;;;;;5091108;28;20449;-71
2022/10/15 08:28:56;;;;;;;4.07;3.77;;;17.10;98.40;;;;;;5091152;28;20452;-71
2022/10/15 08:31:22;;;;;;;4.50;4.10;;;17.10;98.10;;;;;;5091593;28;20455;-71
2022/10/15 08:33:51;;;;;;;4.50;3.80;;;17.10;98.30;;;;;;5090163;28;20481;-71
2022/10/15 08:36:17;;;;;;;3.67;3.33;;;17.10;98.20;;;;;;5091272;28;20448;-71
2022/10/15 08:38:44;;;;;;;6.23;3.30;;;17.20;98.20;;;;;;5091955;28;20437;-71
2022/10/15 08:41:24;;;;;;;3.00;2.60;;;17.30;98.30;;;;;;5090211;28;20476;-71
2022/10/15 08:43:51;;;;;;;2.60;2.37;;;17.50;98.00;;;;;;5090125;28;20435;-71
2022/10/15 08:46:23;;;;;;;2.03;1.90;;;17.60;97.70;;;;;;5090738;28;20453;-71
2022/10/15 08:48:55;;;;;;;2.13;1.90;;;17.80;97.50;;;;;;5091161;28;20421;-71
2022/10/15 08:51:23;;;;;;;1.70;1.60;;;17.90;97.10;;;;;;5091208;28;20433;-71
2022/10/15 08:53:54;;;;;;;1.93;1.27;;;18.00;96.60;;;;;;5090170;28;20453;-71
2022/10/15 08:56:27;;;;;;;1.90;1.20;;;18.10;96.20;;;;;;5090757;28;20410;-71
2022/10/15 08:59:00;;;;;;;0.90;0.83;;;18.30;95.90;;;;;;5090034;28;21008;-71
2022/10/15 09:01:32;;;;;;;1.00;0.90;;;18.40;95.40;;;;;;5091649;28;20445;-71
2022/10/15 09:04:13;;;;;;;0.80;0.70;;;18.50;94.80;;;;;;5094213;28;20421;-71
2022/10/15 09:06:40;;;;;;;1.90;1.03;;;18.50;94.40;;;;;;5085503;28;20441;-71
2022/10/15 09:09:18;;;;;;;0.63;0.63;;;18.40;94.30;;;;;;5091528;28;20460;-71
2022/10/15 09:11:56;;;;;;;1.67;0.70;;;18.40;94.30;;;;;;5080266;28;20435;-71
2022/10/15 09:14:27;;;;;;;0.67;0.67;;;18.40;94.40;;;;;;5078378;28;20468;-71
2022/10/15 09:16:54;;;;;;;0.93;0.80;;;18.30;94.70;;;;;;5077945;28;20430;-71
2022/10/15 09:19:23;;;;;;;0.70;0.70;;;18.40;95.10;;;;;;5090767;28;20468;-71
2022/10/15 09:21:52;;;;;;;0.83;0.80;;;18.40;95.40;;;;;;5091589;28;20445;-71
2022/10/15 09:24:22;;;;;;;1.47;0.90;;;18.50;95.00;;;;;;5094239;28;20428;-71
2022/10/15 09:27:00;;;;;;;3.47;1.07;;;18.60;94.50;;;;;;5090140;28;20445;-71
2022/10/15 09:29:33;;;;;;;0.90;0.90;;;18.60;94.30;;;;;;5086043;28;20465;-72
2022/10/15 09:32:12;;;;;;;1.40;0.90;;;18.60;94.10;;;;;;5082937;28;20429;-72
2022/10/15 09:34:48;;;;;;;0.73;0.70;;;18.50;94.10;;;;;;5085208;28;20469;-72
2022/10/15 09:37:20;;;;;;;9.13;1.00;;;18.50;94.10;;;;;;5087856;28;20429;-72
2022/10/15 09:40:00;;;;;;;2.00;0.80;;;18.60;94.20;;;;;;5082706;28;20461;-71
2022/10/15 09:42:31;;;;;;;1.07;0.87;;;18.60;94.10;;;;;;5089529;28;20430;-71
2022/10/15 09:45:00;;;;;;;0.93;0.60;;;18.60;94.00;;;;;;5081744;28;20426;-72
2022/10/15 09:47:29;;;;;;;0.70;0.70;;;18.60;94.00;;;;;;5084275;28;20453;-72
2022/10/15 09:49:58;;;;;;;0.70;0.70;;;18.60;94.30;;;;;;5090020;28;20476;-71
2022/10/15 09:52:39;;;;;;;1.13;0.93;;;18.50;94.40;;;;;;5088972;28;20512;-68
2022/10/15 09:55:16;;;;;;;0.70;0.60;;;18.50;94.80;;;;;;5093583;28;20473;-67
2022/10/15 09:57:50;;;;;;;1.13;1.07;;;18.50;95.40;;;;;;5091803;28;20425;-68
2022/10/15 10:00:17;;;;;;;1.40;0.70;;;18.40;96.00;;;;;;5089781;28;20483;-69
2022/10/15 10:02:44;;;;;;;0.70;0.67;;;18.40;96.30;;;;;;5089992;28;20971;-69
2022/10/15 10:05:28;;;;;;;1.40;0.83;;;18.40;97.00;;;;;;5091991;28;20441;-71
2022/10/15 10:08:09;;;;;;;1.77;0.97;;;18.40;97.40;;;;;;5092130;28;20433;-71
2022/10/15 10:10:37;;;;;;;1.03;0.90;;;18.40;97.50;;;;;;5091600;28;20846;-69
2022/10/15 10:13:07;;;;;;;0.80;0.80;;;18.40;97.60;;;;;;5090928;28;20456;-69
2022/10/15 10:15:36;;;;;;;0.80;0.80;;;18.40;97.70;;;;;;5090159;28;20476;-67
2022/10/15 10:18:05;;;;;;;1.40;0.93;;;18.30;98.30;;;;;;5092156;28;20448;-69
2022/10/15 10:20:34;;;;;;;0.90;0.80;;;18.30;98.90;;;;;;5093044;28;20536;-70
2022/10/15 10:23:04;;;;;;;0.50;0.50;;;18.30;98.80;;;;;;5094560;28;20519;-71
2022/10/15 10:25:34;;;;;;;1.83;1.00;;;18.40;98.70;;;;;;5094583;28;20469;-71
2022/10/15 10:28:13;;;;;;;1.20;1.10;;;18.40;98.90;;;;;;5094425;28;20433;-72
2022/10/15 10:30:49;;;;;;;3.90;0.70;;;18.40;99.10;;;;;;5092967;28;20543;-71
2022/10/15 10:33:24;;;;;;;1.73;0.83;;;18.50;99.20;;;;;;5088181;28;20440;-71
2022/10/15 10:35:53;;;;;;;1.47;0.80;;;18.50;99.10;;;;;;5076702;28;20487;-71
2022/10/15 10:38:21;;;;;;;1.20;1.10;;;18.60;99.30;;;;;;5076279;28;20457;-71
2022/10/15 10:40:52;;;;;;;1.03;0.60;;;18.70;99.10;;;;;;5077567;28;20582;-72
2022/10/15 10:43:23;;;;;;;1.80;1.00;;;18.70;98.90;;;;;;5078593;28;20441;-71
2022/10/15 10:45:55;;;;;;;0.90;0.80;;;18.80;98.90;;;;;;5084675;28;20436;-71
2022/10/15 10:48:24;;;;;;;3.20;0.80;;;18.80;98.90;;;;;;5076694;28;20440;-71
2022/10/15 10:51:05;;;;;;;1.10;0.67;;;18.80;98.70;;;;;;5089292;28;20461;-71
2022/10/15 10:53:36;;;;;;;0.53;0.53;;;18.80;98.70;;;;;;5092672;28;20460;-70
2022/10/15 10:56:07;;;;;;;2.00;0.70;;;18.70;98.80;;;;;;5090077;28;20469;-70
2022/10/15 10:58:34;;;;;;;0.80;0.80;;;18.60;99.10;;;;;;5088252;28;20505;-69
2022/10/15 11:01:01;;;;;;;1.00;1.00;;;18.60;99.50;;;;;;5086763;28;20468;-68
2022/10/15 11:03:33;;;;;;;1.90;1.17;;;18.60;99.70;;;;;;5088229;28;20441;-70
2022/10/15 11:06:28;;;;;;;1.00;0.90;;;18.60;99.90;;;;;;5082651;28;20433;-70
2022/10/15 11:09:06;;;;;;;0.83;0.83;;;18.50;99.90;;;;;;5070209;28;20487;-71
2022/10/15 11:11:40;;;;;;;0.60;0.50;;;18.40;99.90;;;;;;5081694;28;20429;-71
2022/10/15 11:14:19;;;;;;;0.90;0.90;;;18.50;99.90;;;;;;5082372;28;20444;-71
2022/10/15 11:16:56;;;;;;;0.60;0.60;;;18.50;99.90;;;;;;5086200;28;20429;-71
2022/10/15 11:19:33;;;;;;;0.60;0.57;;;18.60;99.90;;;;;;5087403;28;20456;-71
2022/10/15 11:22:16;;;;;;;0.60;0.60;;;18.70;99.90;;;;;;5087229;28;20495;-71
2022/10/15 11:24:48;;;;;;;0.80;0.60;;;18.80;99.90;;;;;;5091877;28;20444;-71
2022/10/15 11:27:46;;;;;;;1.10;0.70;;;18.90;99.90;;;;;;5091103;28;20441;-71
2022/10/15 11:30:27;;;;;;;1.07;0.60;;;18.90;99.90;;;;;;5088635;28;20465;-71
2022/10/15 11:33:06;;;;;;;1.37;0.70;;;18.90;99.90;;;;;;5087332;28;20437;-71
2022/10/15 11:35:42;;;;;;;1.23;0.80;;;18.90;99.90;;;;;;5084497;28;20481;-71
2022/10/15 11:38:21;;;;;;;0.40;0.40;;;18.90;99.90;;;;;;5090054;28;20444;-71
2022/10/15 11:41:03;;;;;;;1.00;0.60;;;18.90;99.90;;;;;;5090191;28;20481;-71
2022/10/15 11:43:50;;;;;;;1.00;0.60;;;19.00;99.90;;;;;;5091641;28;20453;-71
2022/10/15 11:46:25;;;;;;;3.50;0.77;;;19.10;99.90;;;;;;5092450;28;20413;-71
2022/10/15 11:49:04;;;;;;;0.93;0.77;;;19.20;99.90;;;;;;5092263;28;20442;-71
2022/10/15 11:51:38;;;;;;;0.83;0.40;;;19.40;99.90;;;;;;5092568;28;20508;-71
2022/10/15 11:54:20;;;;;;;1.10;0.40;;;19.40;99.90;;;;;;5092152;28;20999;-71
2022/10/15 11:56:49;;;;;;;2.13;0.90;;;19.50;99.40;;;;;;5092104;28;20473;-71
2022/10/15 11:59:35;;;;;;;1.70;0.40;;;19.50;98.70;;;;;;5091903;28;20479;-71
2022/10/15 12:02:13;;;;;;;2.80;0.40;;;19.60;98.90;;;;;;5092592;28;20421;-71
2022/10/15 12:04:45;;;;;;;1.50;0.40;;;19.70;98.60;;;;;;5092442;28;20437;-71
2022/10/15 12:07:18;;;;;;;0.40;0.30;;;19.80;98.20;;;;;;5091907;28;20429;-71
2022/10/15 12:09:49;;;;;;;0.50;0.30;;;19.90;97.80;;;;;;5091112;28;20972;-72
2022/10/15 12:12:25;;;;;;;2.60;0.47;;;20.00;96.70;;;;;;5091101;28;20436;-73
2022/10/15 12:15:15;;;;;;;1.67;0.40;;;20.00;96.60;;;;;;5091314;28;20424;-72
2022/10/15 12:17:51;;;;;;;1.00;0.40;;;20.00;96.70;;;;;;5090384;28;20429;-72
2022/10/15 12:20:21;;;;;;;0.93;0.40;;;19.90;96.70;;;;;;5086872;28;20477;-73
2022/10/15 12:22:56;;;;;;;1.90;0.40;;;20.00;96.60;;;;;;5091427;28;20575;-73
2022/10/15 12:25:47;;;;;;;2.13;0.50;;;20.00;96.70;;;;;;5089821;28;20468;-78
2022/10/15 12:28:17;;;;;;;0.40;0.30;;;20.10;96.90;;;;;;5090035;28;20912;-72
2022/10/15 12:44:21;;;;;;;0.50;0.50;;;20.20;96.40;;;;;;5100857;28;20420;-73
2022/10/15 12:46:48;;;;;;;1.53;0.90;;;20.40;96.20;;;;;;5096937;28;20451;-73
2022/10/15 12:49:45;;;;;;;0.60;0.60;;;20.50;95.60;;;;;;5105285;28;20464;-73
2022/10/15 12:52:49;;;;;;;1.40;0.70;;;20.60;95.70;;;;;;5078931;28;20456;-73
2022/10/15 12:55:24;;;;;;;1.10;0.50;;;20.60;95.60;;;;;;5097692;28;20478;-72
2022/10/15 12:57:56;;;;;;;0.73;0.57;;;20.70;95.40;;;;;;5079523;28;20452;-74
2022/10/15 13:00:51;;;;;;;0.80;0.80;;;20.70;95.30;;;;;;5077889;28;20480;-73
2022/10/15 13:03:37;;;;;;;2.83;0.50;;;20.80;95.40;;;;;;5079635;28;20425;-72
2022/10/15 13:06:30;;;;;;;1.70;0.70;;;21.00;95.00;;;;;;5079646;28;20461;-72
2022/10/15 13:09:10;;;;;;;0.83;0.43;;;21.10;94.60;;;;;;5078849;28;20779;-72
2022/10/15 13:11:43;;;;;;;0.60;0.40;;;21.20;94.50;;;;;;5078901;28;20440;-72